createdAt,value
2022-10-28T00:01:19.939Z,3.60
2022-10-28T00:03:56.485Z,3.20
2022-10-28T00:06:32.572Z,3.93
2022-10-28T00:09:06.837Z,3.70
2022-10-28T00:11:40.546Z,3.90
2022-10-28T00:14:13.632Z,3.67
2022-10-28T00:16:44.591Z,3.40
2022-10-28T00:19:18.306Z,3.30
2022-10-28T00:21:49.172Z,3.30
2022-10-28T00:24:19.941Z,3.60
2022-10-28T00:26:50.697Z,4.20
2022-10-28T00:29:24.478Z,3.13
2022-10-28T00:31:55.830Z,3.37
2022-10-28T00:34:29.666Z,4.20
2022-10-28T00:37:00.677Z,3.93
2022-10-28T00:39:31.987Z,3.83
2022-10-28T00:42:04.836Z,3.30
2022-10-28T00:45:00.854Z,3.37
2022-10-28T00:47:52.382Z,3.80
2022-10-28T00:50:46.145Z,3.33
2022-10-28T00:53:20.845Z,3.67
2022-10-28T00:55:52.612Z,3.10
2022-10-28T00:58:26.516Z,3.53
2022-10-28T01:00:57.564Z,3.73
2022-10-28T01:03:29.334Z,3.17
2022-10-28T01:06:04.805Z,3.10
2022-10-28T01:08:36.861Z,3.73
2022-10-28T01:11:31.846Z,2.73
2022-10-28T01:14:19.290Z,3.20
2022-10-28T01:17:09.264Z,2.87
2022-10-28T01:20:14.795Z,3.07
2022-10-28T01:22:54.863Z,2.80
2022-10-28T01:25:58.093Z,3.30
2022-10-28T01:28:46.172Z,2.87
2022-10-28T01:31:32.075Z,3.10
2022-10-28T01:34:13.037Z,3.43
2022-10-28T01:36:50.082Z,3.60
2022-10-28T01:39:31.396Z,3.10
2022-10-28T01:42:12.165Z,3.30
2022-10-28T01:44:49.190Z,3.40
2022-10-28T01:47:27.621Z,3.93
2022-10-28T01:50:03.618Z,3.20
2022-10-28T01:52:35.799Z,2.97
2022-10-28T01:55:13.234Z,3.47
2022-10-28T01:57:45.255Z,2.87
2022-10-28T02:00:17.164Z,2.90
2022-10-28T02:02:52.620Z,3.10
2022-10-28T02:05:44.209Z,3.50
2022-10-28T02:08:36.962Z,3.63
2022-10-28T02:11:36.472Z,3.53
2022-10-28T02:14:20.972Z,2.80
2022-10-28T02:16:57.570Z,3.10
2022-10-28T02:19:38.062Z,3.23
2022-10-28T02:22:21.161Z,3.73
2022-10-28T02:25:01.623Z,3.73
2022-10-28T02:27:38.814Z,3.17
2022-10-28T02:30:13.228Z,3.00
2022-10-28T02:32:49.745Z,3.10
2022-10-28T02:35:28.556Z,3.17
2022-10-28T02:38:02.066Z,3.90
2022-10-28T02:40:35.302Z,2.80
2022-10-28T02:43:11.773Z,3.20
2022-10-28T02:45:46.714Z,2.80
2022-10-28T02:48:22.162Z,3.90
2022-10-28T02:51:00.608Z,3.20
2022-10-28T02:53:35.385Z,3.40
2022-10-28T02:56:08.859Z,3.73
2022-10-28T02:58:43.340Z,3.77
2022-10-28T03:01:14.223Z,3.17
2022-10-28T03:03:45.492Z,3.10
2022-10-28T03:06:19.380Z,3.57
2022-10-28T03:08:50.134Z,3.23
2022-10-28T03:11:21.363Z,3.50
2022-10-28T03:13:52.152Z,3.87
2022-10-28T03:16:23.097Z,3.97
2022-10-28T03:18:53.860Z,3.17
2022-10-28T03:21:30.522Z,3.37
2022-10-28T03:24:01.415Z,3.00
2022-10-28T03:26:32.222Z,3.07
2022-10-28T03:29:02.980Z,3.83
2022-10-28T03:31:33.811Z,3.60
2022-10-28T03:34:04.607Z,3.80
2022-10-28T03:36:38.681Z,3.70
2022-10-28T03:39:09.490Z,3.00
2022-10-28T03:41:42.455Z,3.50
2022-10-28T03:44:13.211Z,4.00
2022-10-28T03:46:46.593Z,4.07
2022-10-28T03:49:17.370Z,3.90
2022-10-28T03:51:50.737Z,3.83
2022-10-28T03:54:21.538Z,3.67
2022-10-28T03:56:52.409Z,4.20
2022-10-28T03:59:25.713Z,3.70
2022-10-28T04:01:56.690Z,3.20
2022-10-28T04:04:29.987Z,3.40
2022-10-28T04:07:04.277Z,3.00
2022-10-28T04:09:35.061Z,3.43
2022-10-28T04:12:09.268Z,3.53
2022-10-28T04:14:43.072Z,3.50
2022-10-28T04:17:16.455Z,3.67
2022-10-28T04:19:47.956Z,3.87
2022-10-28T04:22:21.344Z,4.00
2022-10-28T04:24:55.571Z,3.10
2022-10-28T04:27:26.490Z,3.33
2022-10-28T04:29:59.160Z,3.43
2022-10-28T04:32:29.999Z,3.40
2022-10-28T04:35:01.006Z,3.63
2022-10-28T04:37:35.714Z,3.40
2022-10-28T04:40:07.552Z,3.77
2022-10-28T04:42:40.498Z,3.87
2022-10-28T04:45:12.319Z,4.13
2022-10-28T04:47:43.027Z,3.40
2022-10-28T04:50:14.022Z,3.90
2022-10-28T04:52:47.385Z,3.90
2022-10-28T04:55:18.337Z,4.20
2022-10-28T04:57:56.496Z,3.60
2022-10-28T05:00:28.909Z,3.80
2022-10-28T05:02:59.708Z,3.67
2022-10-28T05:05:30.492Z,3.30
2022-10-28T05:08:03.815Z,4.20
2022-10-28T05:10:34.530Z,4.00
2022-10-28T05:13:05.258Z,3.67
2022-10-28T05:15:36.100Z,3.90
2022-10-28T05:18:07.439Z,3.87
2022-10-28T05:20:38.152Z,4.17
2022-10-28T05:23:11.593Z,4.10
2022-10-28T05:25:42.754Z,3.87
2022-10-28T05:28:15.739Z,4.13
2022-10-28T05:30:48.178Z,4.07
2022-10-28T05:33:18.918Z,4.00
2022-10-28T05:35:49.966Z,3.27
2022-10-28T05:38:23.667Z,3.43
2022-10-28T05:40:55.381Z,4.10
2022-10-28T05:43:26.082Z,4.30
2022-10-28T05:45:58.036Z,3.50
2022-10-28T05:48:30.959Z,3.70
2022-10-28T05:51:01.707Z,3.47
2022-10-28T05:53:35.100Z,4.13
2022-10-28T05:56:06.139Z,4.13
2022-10-28T05:58:40.514Z,3.77
2022-10-28T06:01:11.736Z,4.07
2022-10-28T06:03:44.231Z,4.77
2022-10-28T06:06:16.011Z,4.27
2022-10-28T06:08:50.215Z,4.47
2022-10-28T06:11:19.402Z,3.90
2022-10-28T06:13:52.300Z,4.17
2022-10-28T06:16:22.993Z,4.30
2022-10-28T06:18:54.228Z,4.37
2022-10-28T06:21:28.460Z,3.97
2022-10-28T06:24:06.591Z,4.07
2022-10-28T06:26:38.318Z,4.27
2022-10-28T06:29:11.518Z,4.20
2022-10-28T06:31:42.540Z,4.47
2022-10-28T06:34:13.885Z,3.60
2022-10-28T06:36:46.205Z,4.20
2022-10-28T06:39:19.835Z,4.33
2022-10-28T06:41:53.707Z,4.03
2022-10-28T06:44:24.441Z,4.23
2022-10-28T06:46:58.933Z,4.50
2022-10-28T06:49:30.824Z,3.70
2022-10-28T06:52:01.545Z,3.63
2022-10-28T06:54:34.943Z,4.00
2022-10-28T06:57:05.656Z,4.23
2022-10-28T06:59:36.870Z,4.30
2022-10-28T07:02:07.918Z,3.97
2022-10-28T07:04:39.278Z,4.10
2022-10-28T07:07:10.075Z,3.70
2022-10-28T07:09:43.369Z,4.80
2022-10-28T07:12:14.307Z,4.20
2022-10-28T07:14:45.334Z,4.27
2022-10-28T07:17:18.677Z,4.23
2022-10-28T07:19:51.313Z,3.80
2022-10-28T07:22:25.492Z,3.10
2022-10-28T07:24:59.214Z,4.37
2022-10-28T07:27:30.285Z,3.50
2022-10-28T07:30:01.131Z,3.97
2022-10-28T07:32:35.231Z,3.97
2022-10-28T07:35:06.199Z,3.83
2022-10-28T07:37:37.646Z,4.50
2022-10-28T07:40:13.171Z,3.50
2022-10-28T07:42:44.089Z,4.30
2022-10-28T07:45:15.236Z,3.87
2022-10-28T07:47:46.283Z,4.10
2022-10-28T07:50:18.941Z,3.70
2022-10-28T07:52:50.913Z,4.00
2022-10-28T07:55:26.196Z,3.77
2022-10-28T07:57:57.236Z,4.03
2022-10-28T08:00:28.213Z,3.13
2022-10-28T08:02:59.009Z,4.10
2022-10-28T08:05:29.633Z,3.77
2022-10-28T08:08:00.734Z,3.37
2022-10-28T08:10:34.132Z,3.33
2022-10-28T08:13:06.311Z,3.90
2022-10-28T08:15:37.120Z,3.97
2022-10-28T08:18:07.982Z,3.97
2022-10-28T08:20:38.886Z,3.87
2022-10-28T08:23:09.616Z,3.73
2022-10-28T08:25:55.339Z,4.40
2022-10-28T08:28:27.489Z,4.27
2022-10-28T08:31:08.744Z,4.00
2022-10-28T08:33:44.395Z,4.10
2022-10-28T08:36:18.127Z,4.00
2022-10-28T08:38:49.875Z,4.20
2022-10-28T08:41:41.148Z,3.77
2022-10-28T08:44:52.093Z,4.03
2022-10-28T08:47:40.727Z,4.53
2022-10-28T08:50:18.223Z,4.50
2022-10-28T08:52:58.605Z,3.97
2022-10-28T08:55:34.758Z,4.40
2022-10-28T08:58:14.772Z,3.80
2022-10-28T09:00:49.835Z,3.80
2022-10-28T09:03:24.052Z,3.63
2022-10-28T09:06:00.008Z,3.57
2022-10-28T09:08:33.196Z,4.03
2022-10-28T09:11:37.575Z,4.33
2022-10-28T09:14:39.041Z,4.27
2022-10-28T09:17:20.232Z,4.10
2022-10-28T09:19:53.759Z,3.70
2022-10-28T09:22:33.714Z,3.97
2022-10-28T09:25:08.789Z,3.93
2022-10-28T09:28:07.327Z,4.30
2022-10-28T09:30:55.847Z,3.83
2022-10-28T09:33:47.737Z,4.40
2022-10-28T09:36:26.071Z,4.70
2022-10-28T09:38:59.826Z,4.40
2022-10-28T09:41:35.378Z,3.37
2022-10-28T09:44:15.144Z,3.40
2022-10-28T09:46:51.384Z,4.17
2022-10-28T09:49:27.871Z,3.80
2022-10-28T09:52:07.013Z,4.80
2022-10-28T09:54:40.343Z,4.17
2022-10-28T09:57:14.966Z,3.67
2022-10-28T09:59:48.546Z,4.03
2022-10-28T10:02:30.721Z,3.50
2022-10-28T10:05:03.998Z,3.87
2022-10-28T10:07:42.263Z,4.07
2022-10-28T10:10:18.480Z,4.73
2022-10-28T10:12:52.571Z,3.70
2022-10-28T10:15:32.004Z,4.20
2022-10-28T10:18:09.051Z,4.40
2022-10-28T10:20:50.842Z,4.00
2022-10-28T10:23:27.038Z,3.60
2022-10-28T10:26:01.052Z,3.43
2022-10-28T10:28:34.878Z,4.30
2022-10-28T10:31:08.258Z,3.93
2022-10-28T10:33:45.739Z,3.77
2022-10-28T10:36:21.064Z,4.07
2022-10-28T10:38:54.658Z,3.90
2022-10-28T10:41:41.384Z,3.80
2022-10-28T10:44:33.091Z,3.90
2022-10-28T10:47:23.489Z,3.93
2022-10-28T10:50:22.601Z,4.50
2022-10-28T10:52:57.251Z,3.63
2022-10-28T10:55:42.492Z,4.67
2022-10-28T10:58:20.725Z,4.43
2022-10-28T11:00:55.220Z,3.80
2022-10-28T11:03:30.171Z,4.00
2022-10-28T11:06:23.152Z,3.90
2022-10-28T11:09:23.214Z,3.73
2022-10-28T11:12:18.491Z,3.87
2022-10-28T11:15:00.925Z,4.37
2022-10-28T11:20:31.124Z,3.93
2022-10-28T11:23:23.366Z,3.43
2022-10-28T11:25:59.657Z,3.70
2022-10-28T11:28:45.831Z,3.70
2022-10-28T11:31:48.788Z,3.60
2022-10-28T11:34:31.958Z,4.20
2022-10-28T11:37:09.721Z,4.00
2022-10-28T11:39:51.368Z,3.83
2022-10-28T11:42:33.066Z,4.40
2022-10-28T11:45:11.809Z,4.00
2022-10-28T11:48:12.459Z,3.40
2022-10-28T11:51:01.061Z,3.47
2022-10-28T11:53:48.163Z,4.37
2022-10-28T11:56:35.704Z,3.97
2022-10-28T11:59:48.093Z,3.63
2022-10-28T12:02:38.515Z,3.47
2022-10-28T12:05:16.935Z,3.50
2022-10-28T12:08:19.209Z,3.80
2022-10-28T12:11:03.984Z,4.00
2022-10-28T12:13:43.192Z,3.50
2022-10-28T12:16:26.053Z,3.93
2022-10-28T12:19:00.243Z,4.10
2022-10-28T12:24:12.656Z,3.60
2022-10-28T12:26:46.544Z,3.80
2022-10-28T12:29:25.265Z,3.40
2022-10-28T12:32:01.248Z,4.30
2022-10-28T12:37:34.564Z,3.70
2022-10-28T12:40:16.245Z,3.93
2022-10-28T12:42:54.693Z,3.90
2022-10-28T12:45:31.406Z,3.83
2022-10-28T12:48:08.778Z,3.90
2022-10-28T12:50:47.425Z,3.90
2022-10-28T12:53:35.215Z,3.27
2022-10-28T12:56:12.838Z,3.80
2022-10-28T12:58:55.005Z,3.77
2022-10-28T13:01:33.571Z,3.77
2022-10-28T13:04:04.821Z,4.00
2022-10-28T13:07:05.853Z,3.60
2022-10-28T13:09:49.954Z,3.60
2022-10-28T13:12:42.911Z,3.77
2022-10-28T13:15:31.521Z,3.70
2022-10-28T13:18:27.775Z,3.60
2022-10-28T13:21:10.560Z,4.07
2022-10-28T13:23:46.479Z,3.40
2022-10-28T13:26:25.255Z,4.07
2022-10-28T13:28:58.949Z,3.80
2022-10-28T13:31:40.609Z,3.50
2022-10-28T13:34:16.177Z,4.10
2022-10-28T13:36:51.259Z,3.40
2022-10-28T13:39:44.677Z,4.10
2022-10-28T13:42:34.836Z,3.60
2022-10-28T13:45:06.299Z,4.13
2022-10-28T13:47:38.438Z,3.87
2022-10-28T13:50:37.222Z,3.70
2022-10-28T13:53:38.001Z,3.97
2022-10-28T13:56:24.482Z,4.20
2022-10-28T13:58:57.883Z,4.10
2022-10-28T14:02:01.366Z,4.00
2022-10-28T14:04:41.124Z,3.57
2022-10-28T14:07:27.907Z,3.63
2022-10-28T14:10:20.665Z,3.87
2022-10-28T14:12:58.249Z,3.43
2022-10-28T14:15:36.636Z,3.47
2022-10-28T14:18:37.511Z,3.47
2022-10-28T14:21:02.065Z,3.50
2022-10-28T14:24:18.022Z,4.30
2022-10-28T14:27:28.097Z,4.00
2022-10-28T14:30:26.678Z,4.10
2022-10-28T14:33:24.350Z,4.00
2022-10-28T14:36:25.181Z,4.00
2022-10-28T14:39:26.143Z,3.77
2022-10-28T14:42:12.293Z,3.73
2022-10-28T14:45:04.651Z,4.33
2022-10-28T14:48:08.234Z,4.00
2022-10-28T14:50:43.719Z,4.47
2022-10-28T14:53:26.906Z,4.60
2022-10-28T14:56:03.508Z,4.20
2022-10-28T14:58:40.038Z,5.17
2022-10-28T15:01:39.241Z,4.00
2022-10-28T15:04:16.588Z,4.37
2022-10-28T15:06:53.073Z,4.63
2022-10-28T15:09:26.197Z,3.67
2022-10-28T15:11:59.958Z,4.23
2022-10-28T15:14:34.837Z,4.20
2022-10-28T15:17:17.829Z,3.57
2022-10-28T15:19:53.412Z,4.40
2022-10-28T15:22:26.641Z,4.27
2022-10-28T15:25:02.630Z,4.53
2022-10-28T15:27:35.835Z,4.60
2022-10-28T15:30:07.136Z,4.10
2022-10-28T15:32:38.488Z,4.20
2022-10-28T15:35:41.164Z,4.10
2022-10-28T15:38:28.132Z,4.40
2022-10-28T15:40:59.594Z,4.33
2022-10-28T15:43:31.910Z,5.00
2022-10-28T15:46:18.091Z,4.20
2022-10-28T15:48:53.928Z,4.37
2022-10-28T15:51:29.283Z,4.33
2022-10-28T15:54:13.691Z,4.87
2022-10-28T15:56:59.932Z,4.70
2022-10-28T15:59:32.289Z,4.47
2022-10-28T16:02:03.182Z,4.63
2022-10-28T16:04:45.880Z,3.70
2022-10-28T16:07:20.545Z,4.50
2022-10-28T16:09:54.867Z,4.80
2022-10-28T16:12:30.686Z,4.30
2022-10-28T16:15:04.481Z,4.80
2022-10-28T16:17:39.325Z,4.70
2022-10-28T16:20:18.461Z,4.60
2022-10-28T16:22:54.530Z,5.03
2022-10-28T16:25:25.799Z,4.40
2022-10-28T16:27:56.855Z,4.80
2022-10-28T16:30:27.861Z,4.17
2022-10-28T16:32:59.646Z,4.00
2022-10-28T16:35:30.366Z,3.93
2022-10-28T16:38:04.199Z,4.33
2022-10-28T16:40:52.344Z,4.60
2022-10-28T16:43:25.125Z,4.13
2022-10-28T16:45:57.217Z,4.27
2022-10-28T16:48:30.357Z,5.37
2022-10-28T16:51:03.345Z,3.90
2022-10-28T16:53:40.996Z,4.90
2022-10-28T16:56:14.667Z,4.37
2022-10-28T16:58:47.356Z,4.47
2022-10-28T17:01:21.719Z,4.83
2022-10-28T17:03:52.489Z,4.63
2022-10-28T17:06:23.280Z,4.50
2022-10-28T17:09:02.864Z,5.03
2022-10-28T17:11:34.310Z,4.90
2022-10-28T17:14:06.399Z,4.50
2022-10-28T17:16:39.291Z,5.63
2022-10-28T17:19:13.278Z,5.07
2022-10-28T17:21:46.131Z,4.40
2022-10-28T17:24:20.710Z,4.93
2022-10-28T17:26:51.669Z,4.70
2022-10-28T17:29:22.769Z,4.67
2022-10-28T17:31:53.523Z,4.40
2022-10-28T17:34:27.970Z,4.77
2022-10-28T17:36:58.816Z,5.40
2022-10-28T17:39:33.273Z,4.80
2022-10-28T17:42:04.317Z,5.50
2022-10-28T17:44:36.653Z,5.70
2022-10-28T17:47:07.859Z,5.80
2022-10-28T17:49:40.605Z,6.00
2022-10-28T17:52:11.439Z,5.90
2022-10-28T17:54:48.048Z,5.50
2022-10-28T17:57:18.808Z,5.87
2022-10-28T17:59:51.145Z,5.40
2022-10-28T18:02:22.016Z,5.23
2022-10-28T18:04:52.862Z,6.70
2022-10-28T18:07:23.731Z,6.23
2022-10-28T18:09:57.418Z,5.40
2022-10-28T18:12:29.322Z,5.93
2022-10-28T18:15:01.357Z,5.97
2022-10-28T18:17:32.395Z,5.77
2022-10-28T18:20:03.160Z,5.93
2022-10-28T18:22:33.981Z,5.63
2022-10-28T18:25:08.317Z,5.53
2022-10-28T18:27:41.317Z,5.37
2022-10-28T18:30:13.031Z,5.10
2022-10-28T18:32:43.805Z,5.53
2022-10-28T18:35:16.990Z,5.20
2022-10-28T18:37:47.737Z,4.73
2022-10-28T18:40:21.095Z,5.60
2022-10-28T18:42:51.906Z,5.47
2022-10-28T18:45:22.706Z,5.10
2022-10-28T18:47:54.152Z,6.23
2022-10-28T18:50:25.632Z,5.77
2022-10-28T18:52:56.650Z,5.93
2022-10-28T18:55:30.472Z,6.10
2022-10-28T18:58:01.209Z,5.50
2022-10-28T19:00:36.097Z,5.67
2022-10-28T19:03:07.191Z,5.73
2022-10-28T19:05:38.158Z,5.60
2022-10-28T19:08:08.905Z,5.43
2022-10-28T19:10:44.059Z,6.33
2022-10-28T19:13:15.078Z,5.93
2022-10-28T19:15:49.349Z,6.17
2022-10-28T19:18:20.490Z,6.30
2022-10-28T19:20:52.228Z,5.10
2022-10-28T19:23:24.666Z,5.47
2022-10-28T19:26:04.212Z,5.10
2022-10-28T19:28:42.037Z,5.20
2022-10-28T19:31:14.539Z,5.60
2022-10-28T19:33:45.709Z,5.97
2022-10-28T19:36:20.173Z,6.30
2022-10-28T19:38:53.617Z,5.33
2022-10-28T19:41:30.024Z,5.57
2022-10-28T19:44:02.503Z,6.07
2022-10-28T19:46:35.280Z,6.10
2022-10-28T19:49:08.763Z,6.40
2022-10-28T19:51:42.133Z,6.07
2022-10-28T19:54:16.468Z,5.50
2022-10-28T19:56:50.673Z,6.07
2022-10-28T19:59:21.866Z,6.40
2022-10-28T20:01:53.284Z,6.03
2022-10-28T20:04:24.251Z,5.77
2022-10-28T20:06:55.102Z,5.53
2022-10-28T20:09:28.998Z,4.80
2022-10-28T20:12:02.560Z,6.40
2022-10-28T20:14:34.116Z,5.70
2022-10-28T20:17:06.721Z,6.00
2022-10-28T20:19:37.673Z,5.53
2022-10-28T20:22:08.461Z,5.80
2022-10-28T20:24:39.448Z,4.90
2022-10-28T20:27:12.800Z,5.50
2022-10-28T20:29:43.535Z,5.87
2022-10-28T20:32:15.785Z,5.90
2022-10-28T20:34:49.719Z,5.80
2022-10-28T20:37:21.033Z,9.70
2022-10-28T20:39:54.935Z,6.50
2022-10-28T20:42:34.059Z,5.87
2022-10-28T20:45:08.570Z,7.77
2022-10-28T20:47:39.290Z,8.10
2022-10-28T20:50:11.392Z,6.27
2022-10-28T20:52:46.098Z,6.70
2022-10-28T20:55:17.699Z,7.40
2022-10-28T20:57:51.047Z,6.70
2022-10-28T21:00:22.279Z,7.20
2022-10-28T21:02:57.805Z,6.50
2022-10-28T21:05:31.207Z,5.80
2022-10-28T21:08:02.695Z,5.70
2022-10-28T21:10:35.767Z,6.20
2022-10-28T21:13:09.936Z,5.83
2022-10-28T21:15:42.629Z,5.90
2022-10-28T21:18:13.359Z,6.20
2022-10-28T21:20:44.155Z,6.23
2022-10-28T21:23:15.634Z,6.00
2022-10-28T21:25:55.158Z,5.53
2022-10-28T21:28:30.201Z,6.17
2022-10-28T21:31:04.285Z,5.43
2022-10-28T21:33:36.894Z,5.93
2022-10-28T21:36:12.033Z,6.10
2022-10-28T21:38:43.148Z,6.33
2022-10-28T21:41:16.278Z,6.87
2022-10-28T21:43:51.345Z,6.50
2022-10-28T21:46:25.815Z,6.40
2022-10-28T21:48:56.663Z,6.60
2022-10-28T21:51:27.426Z,7.07
2022-10-28T21:53:58.605Z,9.30
2022-10-28T21:56:30.601Z,8.03
2022-10-28T21:59:05.104Z,7.37
2022-10-28T22:01:37.012Z,6.77
2022-10-28T22:04:08.393Z,6.87
2022-10-28T22:06:39.260Z,7.03
2022-10-28T22:09:10.070Z,6.77
2022-10-28T22:11:41.231Z,6.87
2022-10-28T22:14:14.692Z,6.90
2022-10-28T22:16:45.409Z,6.60
2022-10-28T22:19:18.145Z,7.13
2022-10-28T22:21:48.944Z,6.17
2022-10-28T22:24:19.747Z,6.73
2022-10-28T22:26:52.862Z,7.33
2022-10-28T22:29:26.247Z,7.93
2022-10-28T22:32:01.390Z,7.00
2022-10-28T22:34:32.111Z,6.90
2022-10-28T22:37:02.894Z,7.10
2022-10-28T22:39:33.717Z,6.60
2022-10-28T22:42:05.775Z,6.50
2022-10-28T22:44:40.241Z,7.07
2022-10-28T22:47:11.029Z,6.20
2022-10-28T22:49:45.432Z,6.33
2022-10-28T22:52:17.814Z,6.27
2022-10-28T22:54:52.038Z,6.70
2022-10-28T22:57:22.772Z,5.93
2022-10-28T22:59:56.183Z,6.60
2022-10-28T23:02:27.480Z,6.30
2022-10-28T23:05:00.592Z,6.60
2022-10-28T23:07:31.374Z,6.27
2022-10-28T23:10:02.304Z,7.00
2022-10-28T23:12:34.892Z,6.90
2022-10-28T23:15:09.209Z,7.67
2022-10-28T23:17:40.083Z,6.60
2022-10-28T23:20:13.761Z,7.07
2022-10-28T23:22:44.470Z,6.27
2022-10-28T23:25:15.276Z,6.30
2022-10-28T23:27:49.618Z,7.60
2022-10-28T23:30:23.731Z,6.40
2022-10-28T23:32:56.377Z,6.23
2022-10-28T23:35:27.441Z,6.70
2022-10-28T23:37:58.448Z,7.83
2022-10-28T23:40:29.453Z,6.90
2022-10-28T23:43:00.185Z,6.80
2022-10-28T23:45:33.624Z,6.83
2022-10-28T23:48:04.485Z,6.73
2022-10-28T23:50:36.541Z,6.67
2022-10-28T23:53:07.690Z,6.87
2022-10-28T23:55:39.249Z,7.63
2022-10-28T23:58:10.133Z,6.30
